createdAt,value
2023-03-30T00:01:04.585Z,80.07
2023-03-30T00:03:33.796Z,79.75
2023-03-30T00:06:05.612Z,78.82
2023-03-30T00:08:33.641Z,79.79
2023-03-30T00:11:02.340Z,79.09
2023-03-30T00:13:30.981Z,78.03
2023-03-30T00:15:58.913Z,78.94
2023-03-30T00:18:26.567Z,78.57
2023-03-30T00:20:55.526Z,78.13
2023-03-30T00:23:23.438Z,78.91
2023-03-30T00:25:51.310Z,78.49
2023-03-30T00:28:18.930Z,77.52
2023-03-30T00:30:47.922Z,79.11
2023-03-30T00:33:16.250Z,79.33
2023-03-30T00:35:43.956Z,79.10
2023-03-30T00:38:12.976Z,78.34
2023-03-30T00:40:40.850Z,78.39
2023-03-30T00:43:15.331Z,78.15
2023-03-30T00:45:42.985Z,77.58
2023-03-30T00:48:11.903Z,77.06
2023-03-30T00:50:41.905Z,77.99
2023-03-30T00:53:16.258Z,78.40
2023-03-30T00:55:45.590Z,77.90
2023-03-30T00:58:14.346Z,77.60
2023-03-30T01:00:43.377Z,76.97
2023-03-30T01:03:17.559Z,77.41
2023-03-30T01:05:46.188Z,78.25
2023-03-30T01:08:16.603Z,76.86
2023-03-30T01:10:45.051Z,77.01
2023-03-30T01:13:13.464Z,76.79
2023-03-30T01:15:48.868Z,77.16
2023-03-30T01:18:28.591Z,76.67
2023-03-30T01:21:37.802Z,75.92
2023-03-30T01:24:27.656Z,76.47
2023-03-30T01:26:57.807Z,75.98
2023-03-30T01:29:34.372Z,76.30
2023-03-30T01:32:35.942Z,76.96
2023-03-30T01:35:42.192Z,77.22
2023-03-30T01:38:46.637Z,76.43
2023-03-30T01:41:20.073Z,76.38
2023-03-30T01:43:51.185Z,77.09
2023-03-30T01:46:25.339Z,76.68
2023-03-30T01:49:00.789Z,76.84
2023-03-30T01:51:32.532Z,77.87
2023-03-30T01:54:03.193Z,78.07
2023-03-30T01:56:34.151Z,79.26
2023-03-30T01:59:06.753Z,79.65
2023-03-30T02:01:38.012Z,79.33
2023-03-30T02:04:07.184Z,79.77
2023-03-30T02:06:38.982Z,78.88
2023-03-30T02:09:07.561Z,78.72
2023-03-30T02:11:38.287Z,79.95
2023-03-30T02:14:07.065Z,79.24
2023-03-30T02:16:38.599Z,79.13
2023-03-30T02:19:07.797Z,79.01
2023-03-30T02:21:36.041Z,78.33
2023-03-30T02:24:05.241Z,78.99
2023-03-30T02:26:34.032Z,80.09
2023-03-30T02:29:03.100Z,80.56
2023-03-30T02:31:31.491Z,82.33
2023-03-30T02:34:09.596Z,85.08
2023-03-30T02:36:51.048Z,87.11
2023-03-30T02:39:27.326Z,87.14
2023-03-30T02:42:06.341Z,90.16
2023-03-30T02:44:44.089Z,91.77
2023-03-30T02:47:14.865Z,92.71
2023-03-30T02:49:55.442Z,95.91
2023-03-30T02:52:34.093Z,98.84
2023-03-30T02:55:09.024Z,100.00
2023-03-30T02:57:46.558Z,100.00
2023-03-30T03:00:18.653Z,100.00
2023-03-30T03:02:50.568Z,100.00
2023-03-30T03:05:18.652Z,100.00
2023-03-30T03:07:48.154Z,100.00
2023-03-30T03:10:15.915Z,100.00
2023-03-30T03:12:44.799Z,100.00
2023-03-30T03:15:13.955Z,100.00
2023-03-30T03:17:45.361Z,100.00
2023-03-30T03:20:13.755Z,100.00
2023-03-30T03:22:41.389Z,100.00
2023-03-30T03:25:10.349Z,100.00
2023-03-30T03:27:37.973Z,100.00
2023-03-30T03:30:06.085Z,100.00
2023-03-30T03:32:33.757Z,100.00
2023-03-30T03:35:02.818Z,100.00
2023-03-30T03:37:30.459Z,100.00
2023-03-30T03:39:58.113Z,100.00
2023-03-30T03:42:25.842Z,100.00
2023-03-30T03:44:53.504Z,100.00
2023-03-30T03:47:23.027Z,100.00
2023-03-30T03:49:50.708Z,100.00
2023-03-30T03:52:19.693Z,100.00
2023-03-30T03:54:47.339Z,100.00
2023-03-30T03:57:15.153Z,100.00
2023-03-30T03:59:42.876Z,100.00
2023-03-30T04:02:10.980Z,100.00
2023-03-30T04:04:38.742Z,100.00
2023-03-30T04:07:06.616Z,100.00
2023-03-30T04:09:35.672Z,100.00
2023-03-30T04:12:03.306Z,100.00
2023-03-30T04:14:31.124Z,100.00
2023-03-30T04:16:58.824Z,100.00
2023-03-30T04:19:27.671Z,100.00
2023-03-30T04:21:55.507Z,100.00
2023-03-30T04:24:23.461Z,100.00
2023-03-30T04:26:52.557Z,100.00
2023-03-30T04:29:21.000Z,100.00
2023-03-30T04:31:50.953Z,100.00
2023-03-30T04:34:21.913Z,100.00
2023-03-30T04:36:49.571Z,100.00
2023-03-30T04:39:18.127Z,100.00
2023-03-30T04:41:47.102Z,100.00
2023-03-30T04:44:20.392Z,100.00
2023-03-30T04:46:47.983Z,100.00
2023-03-30T04:49:15.700Z,100.00
2023-03-30T04:51:43.332Z,100.00
2023-03-30T04:54:11.027Z,100.00
2023-03-30T04:56:38.627Z,100.00
2023-03-30T04:59:06.269Z,100.00
2023-03-30T05:01:35.298Z,100.00
2023-03-30T05:04:02.934Z,100.00
2023-03-30T05:06:30.881Z,100.00
2023-03-30T05:08:58.467Z,100.00
2023-03-30T05:11:26.161Z,100.00
2023-03-30T05:13:54.223Z,100.00
2023-03-30T05:16:22.614Z,100.00
2023-03-30T05:18:51.949Z,100.00
2023-03-30T05:21:19.548Z,100.00
2023-03-30T05:23:47.163Z,100.00
2023-03-30T05:26:14.815Z,100.00
2023-03-30T05:28:43.118Z,100.00
2023-03-30T05:31:10.853Z,100.00
2023-03-30T05:33:38.450Z,100.00
2023-03-30T05:36:08.405Z,100.00
2023-03-30T05:38:36.072Z,100.00
2023-03-30T05:41:05.091Z,100.00
2023-03-30T05:43:33.035Z,100.00
2023-03-30T05:46:01.423Z,100.00
2023-03-30T05:48:29.524Z,100.00
2023-03-30T05:50:57.459Z,100.00
2023-03-30T05:53:26.636Z,100.00
2023-03-30T05:55:54.245Z,100.00
2023-03-30T05:58:21.830Z,100.00
2023-03-30T06:00:49.760Z,100.00
2023-03-30T06:03:17.507Z,100.00
2023-03-30T06:05:45.623Z,100.00
2023-03-30T06:08:13.678Z,100.00
2023-03-30T06:10:42.715Z,100.00
2023-03-30T06:13:10.310Z,100.00
2023-03-30T06:15:38.146Z,100.00
2023-03-30T06:18:06.009Z,100.00
2023-03-30T06:20:33.755Z,100.00
2023-03-30T06:23:01.713Z,100.00
2023-03-30T06:25:29.678Z,100.00
2023-03-30T06:27:58.958Z,100.00
2023-03-30T06:30:26.815Z,100.00
2023-03-30T06:32:54.935Z,100.00
2023-03-30T06:35:22.944Z,100.00
2023-03-30T06:37:50.589Z,100.00
2023-03-30T06:40:19.061Z,100.00
2023-03-30T06:42:47.011Z,100.00
2023-03-30T06:45:16.957Z,100.00
2023-03-30T06:47:44.621Z,100.00
2023-03-30T06:50:13.402Z,100.00
2023-03-30T06:52:41.289Z,100.00
2023-03-30T06:55:09.416Z,100.00
2023-03-30T06:57:37.128Z,100.00
2023-03-30T07:00:10.212Z,100.00
2023-03-30T07:02:39.295Z,100.00
2023-03-30T07:05:08.178Z,100.00
2023-03-30T07:07:36.048Z,100.00
2023-03-30T07:10:09.885Z,100.00
2023-03-30T07:12:37.714Z,100.00
2023-03-30T07:15:07.220Z,100.00
2023-03-30T07:17:35.088Z,100.00
2023-03-30T07:20:05.731Z,100.00
2023-03-30T07:22:33.457Z,100.00
2023-03-30T07:25:01.160Z,100.00
2023-03-30T07:27:29.181Z,100.00
2023-03-30T07:30:00.732Z,100.00
2023-03-30T07:32:32.739Z,100.00
2023-03-30T07:35:00.479Z,100.00
2023-03-30T07:37:29.765Z,100.00
2023-03-30T07:39:57.458Z,100.00
2023-03-30T07:42:25.496Z,100.00
2023-03-30T07:44:53.146Z,100.00
2023-03-30T07:47:20.881Z,100.00
2023-03-30T07:49:48.487Z,100.00
2023-03-30T07:52:16.485Z,100.00
2023-03-30T07:54:45.507Z,100.00
2023-03-30T07:57:13.712Z,100.00
2023-03-30T07:59:41.617Z,100.00
2023-03-30T08:02:12.217Z,100.00
2023-03-30T08:04:40.137Z,100.00
2023-03-30T08:07:07.971Z,100.00
2023-03-30T08:09:35.876Z,100.00
2023-03-30T08:12:05.287Z,100.00
2023-03-30T08:14:32.856Z,100.00
2023-03-30T08:17:00.685Z,100.00
2023-03-30T08:19:28.734Z,100.00
2023-03-30T08:21:57.233Z,100.00
2023-03-30T08:24:24.929Z,100.00
2023-03-30T08:26:52.533Z,100.00
2023-03-30T08:29:21.897Z,100.00
2023-03-30T08:31:49.510Z,100.00
2023-03-30T08:34:17.178Z,100.00
2023-03-30T08:36:44.817Z,100.00
2023-03-30T08:39:12.498Z,100.00
2023-03-30T08:41:54.202Z,100.00
2023-03-30T08:44:33.825Z,100.00
2023-03-30T08:47:02.551Z,100.00
2023-03-30T08:49:31.343Z,100.00
2023-03-30T08:52:02.972Z,100.00
2023-03-30T08:54:31.688Z,100.00
2023-03-30T08:57:03.594Z,100.00
2023-03-30T08:59:38.582Z,100.00
2023-03-30T09:02:15.392Z,100.00
2023-03-30T09:04:57.015Z,100.00
2023-03-30T09:07:27.362Z,100.00
2023-03-30T09:09:56.312Z,100.00
2023-03-30T09:12:34.176Z,100.00
2023-03-30T09:15:07.605Z,100.00
2023-03-30T09:17:38.310Z,100.00
2023-03-30T09:20:10.217Z,100.00
2023-03-30T09:22:40.790Z,100.00
2023-03-30T09:25:17.213Z,100.00
2023-03-30T09:27:51.012Z,100.00
2023-03-30T09:30:22.167Z,100.00
2023-03-30T09:32:57.709Z,100.00
2023-03-30T09:35:30.351Z,100.00
2023-03-30T09:37:58.113Z,96.26
2023-03-30T09:40:35.446Z,91.66
2023-03-30T09:43:10.199Z,94.66
2023-03-30T09:45:39.971Z,92.91
2023-03-30T09:48:09.250Z,93.52
2023-03-30T09:50:39.214Z,89.31
2023-03-30T09:53:10.058Z,86.21
2023-03-30T09:55:38.439Z,83.68
2023-03-30T09:58:19.573Z,86.21
2023-03-30T10:01:03.048Z,84.57
2023-03-30T10:03:30.984Z,88.37
2023-03-30T10:06:07.544Z,87.14
2023-03-30T10:08:41.767Z,83.04
2023-03-30T10:11:09.589Z,84.30
2023-03-30T10:13:38.776Z,82.16
2023-03-30T10:16:10.230Z,78.49
2023-03-30T10:18:41.587Z,74.79
2023-03-30T10:21:18.662Z,76.75
2023-03-30T10:23:48.337Z,75.98
2023-03-30T10:26:19.241Z,78.78
2023-03-30T10:28:54.205Z,76.62
2023-03-30T10:31:25.646Z,78.72
2023-03-30T10:33:57.088Z,79.34
2023-03-30T10:36:27.868Z,78.38
2023-03-30T10:38:55.483Z,78.16
2023-03-30T10:41:24.405Z,78.21
2023-03-30T10:43:52.825Z,77.67
2023-03-30T10:46:23.201Z,75.26
2023-03-30T10:49:00.053Z,75.53
2023-03-30T10:51:37.369Z,79.38
2023-03-30T10:54:10.511Z,78.46
2023-03-30T10:56:40.863Z,79.53
2023-03-30T10:59:32.060Z,81.88
2023-03-30T11:02:19.879Z,80.48
2023-03-30T11:04:51.414Z,81.08
2023-03-30T11:07:26.643Z,83.62
2023-03-30T11:09:56.407Z,88.22
2023-03-30T11:12:27.080Z,92.53
2023-03-30T11:14:58.875Z,94.75
2023-03-30T11:17:28.794Z,95.31
2023-03-30T11:20:00.192Z,95.99
2023-03-30T11:22:33.607Z,98.59
2023-03-30T11:25:02.212Z,100.00
2023-03-30T11:27:33.418Z,100.00
2023-03-30T11:30:05.451Z,100.00
2023-03-30T11:32:39.381Z,100.00
2023-03-30T11:35:13.868Z,100.00
2023-03-30T11:37:47.399Z,100.00
2023-03-30T11:40:18.505Z,100.00
2023-03-30T11:42:47.369Z,100.00
2023-03-30T11:45:22.424Z,100.00
2023-03-30T11:48:07.052Z,100.00
2023-03-30T11:50:45.703Z,100.00
2023-03-30T11:53:24.249Z,100.00
2023-03-30T11:56:07.895Z,100.00
2023-03-30T11:58:37.247Z,100.00
2023-03-30T12:01:14.427Z,100.00
2023-03-30T12:03:43.787Z,100.00
2023-03-30T12:06:29.035Z,100.00
2023-03-30T12:09:05.080Z,100.00
2023-03-30T12:11:38.208Z,100.00
2023-03-30T12:14:15.921Z,100.00
2023-03-30T12:16:46.766Z,100.00
2023-03-30T12:19:17.530Z,100.00
2023-03-30T12:21:52.942Z,100.00
2023-03-30T12:24:24.673Z,100.00
2023-03-30T12:27:04.571Z,100.00
2023-03-30T12:32:25.185Z,100.00
2023-03-30T12:34:54.863Z,100.00
2023-03-30T12:37:26.524Z,100.00
2023-03-30T12:39:57.541Z,100.00
2023-03-30T12:42:34.704Z,100.00
2023-03-30T12:45:21.780Z,100.00
2023-03-30T12:48:10.399Z,100.00
2023-03-30T12:50:42.902Z,100.00
2023-03-30T12:53:27.211Z,100.00
2023-03-30T12:56:01.857Z,100.00
2023-03-30T12:58:48.952Z,100.00
2023-03-30T13:01:22.555Z,100.00
2023-03-30T13:03:52.553Z,100.00
2023-03-30T13:06:25.759Z,100.00
2023-03-30T13:08:58.935Z,100.00
2023-03-30T13:11:26.567Z,100.00
2023-03-30T13:13:56.894Z,100.00
2023-03-30T13:16:47.939Z,100.00
2023-03-30T13:19:22.737Z,100.00
2023-03-30T13:21:57.209Z,100.00
2023-03-30T13:24:37.850Z,100.00
2023-03-30T13:27:22.772Z,100.00
2023-03-30T13:29:54.341Z,100.00
2023-03-30T13:32:28.913Z,100.00
2023-03-30T13:35:07.387Z,100.00
2023-03-30T13:38:05.432Z,100.00
2023-03-30T13:40:48.524Z,100.00
2023-03-30T13:43:36.689Z,100.00
2023-03-30T13:46:16.883Z,100.00
2023-03-30T13:48:55.775Z,100.00
2023-03-30T13:51:27.270Z,100.00
2023-03-30T13:53:57.760Z,100.00
2023-03-30T13:56:27.982Z,100.00
2023-03-30T13:59:00.638Z,100.00
2023-03-30T14:01:28.360Z,100.00
2023-03-30T14:03:56.578Z,100.00
2023-03-30T14:06:27.311Z,100.00
2023-03-30T14:09:06.427Z,100.00
2023-03-30T14:11:37.209Z,100.00
2023-03-30T14:14:05.804Z,100.00
2023-03-30T14:16:35.654Z,100.00
2023-03-30T14:19:13.545Z,100.00
2023-03-30T14:21:44.493Z,100.00
2023-03-30T14:24:14.941Z,100.00
2023-03-30T14:26:44.102Z,100.00
2023-03-30T14:29:24.613Z,100.00
2023-03-30T14:32:08.297Z,100.00
2023-03-30T14:34:37.443Z,100.00
2023-03-30T14:37:06.690Z,100.00
2023-03-30T14:39:39.724Z,100.00
2023-03-30T14:42:16.557Z,100.00
2023-03-30T14:44:45.932Z,100.00
2023-03-30T14:47:13.741Z,100.00
2023-03-30T14:49:43.427Z,100.00
2023-03-30T14:52:16.737Z,100.00
2023-03-30T14:54:54.489Z,100.00
2023-03-30T14:57:37.734Z,100.00
2023-03-30T15:00:13.283Z,100.00
2023-03-30T15:02:42.399Z,100.00
2023-03-30T15:05:10.680Z,100.00
2023-03-30T15:07:38.616Z,100.00
2023-03-30T15:10:07.261Z,100.00
2023-03-30T15:12:38.128Z,100.00
2023-03-30T15:15:08.713Z,100.00
2023-03-30T15:17:37.855Z,100.00
2023-03-30T15:20:07.098Z,100.00
2023-03-30T15:22:36.316Z,100.00
2023-03-30T15:25:06.446Z,100.00
2023-03-30T15:27:36.309Z,100.00
2023-03-30T15:30:04.898Z,100.00
2023-03-30T15:32:36.151Z,100.00
2023-03-30T15:35:09.201Z,100.00
2023-03-30T15:37:37.100Z,100.00
2023-03-30T15:40:29.814Z,100.00
2023-03-30T15:43:25.124Z,100.00
2023-03-30T15:45:54.521Z,100.00
2023-03-30T15:48:24.975Z,100.00
2023-03-30T15:50:55.719Z,100.00
2023-03-30T15:53:33.769Z,100.00
2023-03-30T15:56:01.550Z,100.00
2023-03-30T15:58:30.730Z,100.00
2023-03-30T16:00:58.581Z,100.00
2023-03-30T16:03:35.051Z,100.00
2023-03-30T16:06:02.725Z,100.00
2023-03-30T16:08:30.323Z,100.00
2023-03-30T16:10:58.688Z,100.00
2023-03-30T16:13:26.312Z,100.00
2023-03-30T16:15:55.641Z,100.00
2023-03-30T16:18:23.261Z,100.00
2023-03-30T16:20:50.903Z,100.00
2023-03-30T16:23:19.062Z,100.00
2023-03-30T16:25:47.165Z,100.00
2023-03-30T16:28:17.488Z,100.00
2023-03-30T16:30:47.522Z,100.00
2023-03-30T16:33:16.539Z,100.00
2023-03-30T16:35:44.274Z,100.00
2023-03-30T16:38:13.539Z,100.00
2023-03-30T16:40:43.023Z,100.00
2023-03-30T16:43:11.287Z,100.00
2023-03-30T16:45:39.453Z,100.00
2023-03-30T16:48:07.581Z,100.00
2023-03-30T16:50:38.714Z,100.00
2023-03-30T16:53:07.326Z,100.00
2023-03-30T16:55:34.922Z,100.00
2023-03-30T16:58:02.655Z,100.00
2023-03-30T17:00:31.644Z,100.00
2023-03-30T17:02:59.345Z,100.00
2023-03-30T17:05:27.046Z,100.00
2023-03-30T17:07:56.470Z,100.00
2023-03-30T17:10:26.539Z,100.00
2023-03-30T17:12:55.102Z,100.00
2023-03-30T17:15:24.154Z,100.00
2023-03-30T17:17:52.297Z,100.00
2023-03-30T17:20:24.460Z,100.00
2023-03-30T17:22:52.054Z,100.00
2023-03-30T17:25:23.464Z,100.00
2023-03-30T17:27:52.245Z,100.00
2023-03-30T17:30:23.468Z,100.00
2023-03-30T17:32:51.508Z,100.00
2023-03-30T17:35:19.685Z,100.00
2023-03-30T17:37:47.357Z,100.00
2023-03-30T17:40:22.255Z,100.00
2023-03-30T17:42:50.133Z,100.00
2023-03-30T17:45:19.348Z,100.00
2023-03-30T17:47:47.749Z,100.00
2023-03-30T17:50:21.996Z,100.00
2023-03-30T17:52:50.022Z,100.00
2023-03-30T17:55:18.846Z,100.00
2023-03-30T17:57:48.140Z,100.00
2023-03-30T18:00:22.676Z,100.00
2023-03-30T18:02:50.910Z,100.00
2023-03-30T18:05:19.750Z,100.00
2023-03-30T18:07:47.505Z,100.00
2023-03-30T18:10:23.288Z,100.00
2023-03-30T18:12:53.049Z,99.13
2023-03-30T18:15:22.636Z,100.00
2023-03-30T18:17:50.347Z,100.00
2023-03-30T18:20:23.743Z,99.43
2023-03-30T18:22:51.791Z,99.33
2023-03-30T18:25:31.475Z,98.37
2023-03-30T18:28:01.659Z,98.21
2023-03-30T18:30:31.097Z,96.91
2023-03-30T18:32:59.141Z,96.95
2023-03-30T18:35:28.745Z,96.80
2023-03-30T18:37:56.923Z,96.06
2023-03-30T18:40:27.122Z,96.94
2023-03-30T18:42:54.961Z,97.17
2023-03-30T18:45:26.769Z,97.50
2023-03-30T18:47:54.767Z,97.06
2023-03-30T18:50:24.840Z,96.95
2023-03-30T18:52:52.440Z,97.08
2023-03-30T18:55:20.055Z,97.66
2023-03-30T18:57:47.699Z,97.31
2023-03-30T19:00:21.671Z,98.05
2023-03-30T19:02:51.776Z,98.29
2023-03-30T19:05:20.979Z,99.02
2023-03-30T19:07:48.832Z,99.51
2023-03-30T19:10:17.690Z,99.08
2023-03-30T19:12:45.630Z,99.50
2023-03-30T19:15:19.551Z,99.11
2023-03-30T19:17:47.506Z,99.29
2023-03-30T19:20:17.484Z,99.87
2023-03-30T19:22:45.088Z,100.00
2023-03-30T19:25:13.909Z,100.00
2023-03-30T19:27:51.946Z,100.00
2023-03-30T19:30:29.450Z,100.00
2023-03-30T19:32:58.701Z,100.00
2023-03-30T19:35:28.109Z,100.00
2023-03-30T19:37:56.466Z,100.00
2023-03-30T19:40:24.931Z,100.00
2023-03-30T19:42:52.879Z,100.00
2023-03-30T19:45:22.948Z,100.00
2023-03-30T19:47:50.869Z,100.00
2023-03-30T19:50:20.245Z,100.00
2023-03-30T19:52:50.721Z,100.00
2023-03-30T19:55:22.136Z,100.00
2023-03-30T19:57:50.072Z,100.00
2023-03-30T20:00:19.749Z,100.00
2023-03-30T20:02:49.064Z,100.00
2023-03-30T20:05:17.503Z,100.00
2023-03-30T20:07:45.706Z,100.00
2023-03-30T20:10:16.930Z,100.00
2023-03-30T20:12:44.619Z,100.00
2023-03-30T20:15:12.780Z,100.00
2023-03-30T20:17:42.275Z,100.00
2023-03-30T20:20:12.654Z,100.00
2023-03-30T20:22:41.934Z,100.00
2023-03-30T20:25:11.276Z,100.00
2023-03-30T20:27:40.437Z,100.00
2023-03-30T20:30:09.496Z,100.00
2023-03-30T20:32:39.115Z,100.00
2023-03-30T20:35:08.351Z,100.00
2023-03-30T20:37:36.184Z,100.00
2023-03-30T20:40:04.964Z,100.00
2023-03-30T20:42:32.676Z,100.00
2023-03-30T20:45:01.922Z,100.00
2023-03-30T20:47:31.328Z,100.00
2023-03-30T20:49:59.368Z,100.00
2023-03-30T20:52:27.113Z,100.00
2023-03-30T20:54:56.276Z,100.00
2023-03-30T20:57:24.812Z,100.00
2023-03-30T20:59:54.118Z,100.00
2023-03-30T21:02:23.564Z,100.00
2023-03-30T21:04:53.012Z,100.00
2023-03-30T21:07:24.643Z,100.00
2023-03-30T21:09:52.390Z,100.00
2023-03-30T21:12:20.178Z,100.00
2023-03-30T21:14:47.857Z,100.00
2023-03-30T21:17:15.642Z,100.00
2023-03-30T21:19:44.713Z,100.00
2023-03-30T21:22:12.394Z,100.00
2023-03-30T21:24:40.085Z,100.00
2023-03-30T21:27:07.730Z,100.00
2023-03-30T21:29:35.358Z,100.00
2023-03-30T21:32:03.049Z,100.00
2023-03-30T21:34:30.723Z,100.00
2023-03-30T21:36:59.763Z,100.00
2023-03-30T21:39:27.758Z,100.00
2023-03-30T21:41:55.720Z,100.00
2023-03-30T21:44:23.466Z,100.00
2023-03-30T21:46:51.065Z,100.00
2023-03-30T21:49:18.739Z,100.00
2023-03-30T21:51:46.839Z,100.00
2023-03-30T21:54:16.134Z,100.00
2023-03-30T21:56:44.193Z,100.00
2023-03-30T21:59:11.894Z,100.00
2023-03-30T22:01:39.929Z,100.00
2023-03-30T22:04:07.735Z,100.00
2023-03-30T22:06:35.472Z,100.00
2023-03-30T22:09:03.117Z,100.00
2023-03-30T22:11:32.141Z,100.00
2023-03-30T22:13:59.759Z,100.00
2023-03-30T22:16:31.161Z,100.00
2023-03-30T22:18:59.031Z,100.00
2023-03-30T22:21:29.179Z,100.00
2023-03-30T22:23:56.868Z,100.00
2023-03-30T22:26:24.544Z,100.00
2023-03-30T22:28:53.552Z,100.00
2023-03-30T22:31:21.403Z,100.00
2023-03-30T22:33:49.419Z,100.00
2023-03-30T22:36:18.847Z,100.00
2023-03-30T22:38:46.868Z,100.00
2023-03-30T22:41:14.546Z,100.00
2023-03-30T22:43:42.253Z,100.00
2023-03-30T22:46:11.936Z,100.00
2023-03-30T22:48:41.492Z,100.00
2023-03-30T22:51:09.480Z,100.00
2023-03-30T22:53:38.564Z,100.00
2023-03-30T22:56:07.637Z,100.00
2023-03-30T22:58:36.327Z,100.00
2023-03-30T23:01:05.979Z,100.00
2023-03-30T23:03:35.071Z,100.00
2023-03-30T23:06:02.812Z,100.00
2023-03-30T23:08:30.991Z,100.00
2023-03-30T23:11:04.087Z,100.00
2023-03-30T23:13:32.038Z,100.00
2023-03-30T23:16:00.208Z,100.00
2023-03-30T23:18:27.854Z,100.00
2023-03-30T23:20:57.985Z,100.00
2023-03-30T23:23:25.920Z,100.00
2023-03-30T23:25:54.061Z,100.00
2023-03-30T23:28:21.668Z,100.00
2023-03-30T23:30:49.325Z,100.00
2023-03-30T23:33:17.441Z,100.00
2023-03-30T23:35:50.778Z,100.00
2023-03-30T23:38:19.996Z,100.00
2023-03-30T23:40:47.637Z,100.00
2023-03-30T23:43:15.423Z,100.00
2023-03-30T23:45:43.664Z,100.00
2023-03-30T23:48:11.296Z,100.00
2023-03-30T23:50:38.936Z,100.00
2023-03-30T23:53:07.009Z,100.00
2023-03-30T23:55:36.054Z,100.00
2023-03-30T23:58:03.715Z,100.00
